Time;durP1;ratioP1;P1;durP2;ratioP2;P2;SDS_P1;SDS_P2;PMS_P1;PMS_P2;Temp;Humidity;BMP_temperature;BMP_pressure;BME280_temperature;BME280_humidity;BME280_pressure;Samples;Min_cycle;Max_cycle;Signal;HPM_P1;HPM_P2
2022/10/15 00:01:06;;;;;;;9.82;8.82;;;;;;;16.21;76.63;99453.03;5132821;28;20062;-53
2022/10/15 00:03:37;;;;;;;10.35;9.18;;;;;;;16.26;76.57;99457.50;5132663;28;20511;-52
2022/10/15 00:06:06;;;;;;;10.77;9.68;;;;;;;16.27;76.72;99453.50;5132936;28;20411;-52
2022/10/15 00:08:33;;;;;;;10.05;9.07;;;;;;;16.26;76.69;99451.88;5129627;27;20051;-52
2022/10/15 00:11:06;;;;;;;9.90;8.90;;;;;;;16.27;76.77;99449.88;5132743;28;20055;-54
2022/10/15 00:13:33;;;;;;;10.68;9.60;;;;;;;16.29;76.57;99455.94;5132694;28;20525;-53
2022/10/15 00:16:01;;;;;;;12.35;10.70;;;;;;;16.31;76.50;99448.75;5133009;28;20055;-50
2022/10/15 00:18:28;;;;;;;11.48;10.27;;;;;;;16.29;76.20;99444.69;5132698;28;20066;-52
2022/10/15 00:20:57;;;;;;;11.02;9.93;;;;;;;16.27;76.68;99439.44;5131461;27;20054;-52
2022/10/15 00:23:24;;;;;;;10.23;9.32;;;;;;;16.27;76.98;99435.81;5131659;27;20055;-52
2022/10/15 00:26:01;;;;;;;10.82;9.55;;;;;;;16.28;76.95;99443.09;5134759;27;20051;-52
2022/10/15 00:28:28;;;;;;;10.98;9.60;;;;;;;16.27;76.95;99438.63;5115849;28;20056;-51
2022/10/15 00:31:00;;;;;;;11.82;10.63;;;;;;;16.27;76.39;99430.22;5116028;28;20051;-52
2022/10/15 00:33:27;;;;;;;14.50;13.02;;;;;;;16.25;76.63;99436.19;5107930;28;20424;-53
2022/10/15 00:36:05;;;;;;;12.93;11.60;;;;;;;16.26;76.87;99428.59;5114712;28;20059;-52
2022/10/15 00:38:36;;;;;;;13.25;11.90;;;;;;;16.23;76.33;99425.34;5115814;28;20052;-53
2022/10/15 00:41:04;;;;;;;13.68;11.88;;;;;;;16.24;76.08;99424.16;5116259;28;20058;-53
2022/10/15 00:43:40;;;;;;;12.93;11.68;;;;;;;16.21;76.50;99426.91;5115886;28;20056;-52
2022/10/15 00:46:16;;;;;;;12.40;11.18;;;;;;;16.19;76.30;99424.50;5115707;28;20047;-52
2022/10/15 00:48:45;;;;;;;11.80;10.40;;;;;;;16.18;76.83;99422.06;5114798;27;20056;-53
2022/10/15 00:51:15;;;;;;;12.20;10.27;;;;;;;16.17;76.32;99424.06;5115943;27;20365;-52
2022/10/15 00:53:42;;;;;;;11.38;10.18;;;;;;;16.15;76.19;99428.44;5116714;27;20058;-51
2022/10/15 00:56:09;;;;;;;11.52;10.32;;;;;;;16.10;76.58;99425.94;5115997;28;20056;-51
2022/10/15 00:58:37;;;;;;;11.05;9.95;;;;;;;16.06;76.12;99423.06;5115337;28;20066;-52
2022/10/15 01:01:05;;;;;;;10.57;9.48;;;;;;;16.02;76.10;99422.19;5115590;28;20397;-53
2022/10/15 01:03:34;;;;;;;10.73;9.15;;;;;;;15.95;76.81;99414.47;5113488;27;20064;-52
2022/10/15 01:06:03;;;;;;;10.73;9.63;;;;;;;15.90;76.02;99423.22;5115372;28;20066;-53
2022/10/15 01:08:31;;;;;;;10.77;9.68;;;;;;;15.85;76.67;99425.53;5115054;28;20051;-53
2022/10/15 01:11:20;;;;;;;14.00;9.80;;;;;;;15.80;76.69;99419.03;5115183;28;20075;-53
2022/10/15 01:14:00;;;;;;;10.98;9.88;;;;;;;15.76;77.00;99425.78;5115248;28;20457;-52
2022/10/15 01:16:35;;;;;;;11.10;9.55;;;;;;;15.70;76.70;99419.66;5113945;27;20056;-51
2022/10/15 01:19:19;;;;;;;15.00;10.95;;;;;;;15.66;77.59;99424.38;5115201;27;20058;-51
2022/10/15 01:21:54;;;;;;;14.20;11.95;;;;;;;15.61;76.77;99416.28;5115261;28;20107;-51
2022/10/15 01:25:03;;;;;;;15.95;11.30;;;;;;;15.54;77.09;99416.97;5114949;28;20056;-53
2022/10/15 01:27:36;;;;;;;12.80;10.95;;;;;;;15.49;76.92;99416.47;5114867;27;20055;-52
2022/10/15 01:30:26;;;;;;;14.10;11.93;;;;;;;15.43;76.65;99411.19;5112628;27;20051;-53
2022/10/15 01:33:23;;;;;;;12.05;10.57;;;;;;;15.38;77.72;99413.47;5118538;27;20080;-53
2022/10/15 01:35:54;;;;;;;11.57;9.82;;;;;;;15.30;77.43;99409.72;5134937;27;20055;-52
2022/10/15 01:38:34;;;;;;;12.38;10.35;;;;;;;15.28;77.48;99414.09;5133932;27;20055;-52
2022/10/15 01:41:14;;;;;;;11.52;10.43;;;;;;;15.20;76.40;99415.94;5141676;27;20051;-52
2022/10/15 01:43:46;;;;;;;12.88;10.25;;;;;;;15.13;76.70;99421.41;5134989;27;20078;-53
2022/10/15 01:46:20;;;;;;;10.73;9.02;;;;;;;15.09;77.13;99414.94;5135365;27;20062;-52
2022/10/15 01:48:50;;;;;;;11.13;8.85;;;;;;;15.01;76.67;99412.00;5134780;27;20116;-53
2022/10/15 01:51:18;;;;;;;10.65;8.88;;;;;;;14.97;76.56;99421.50;5133675;27;20055;-52
2022/10/15 01:53:47;;;;;;;9.02;7.63;;;;;;;14.92;77.78;99428.22;5134738;27;20070;-49
2022/10/15 01:56:20;;;;;;;10.68;7.97;;;;;;;14.90;77.07;99435.38;5134499;27;20051;-51
2022/10/15 01:58:50;;;;;;;8.82;7.47;;;;;;;14.86;77.81;99432.50;5134576;27;20058;-50
2022/10/15 02:01:19;;;;;;;11.45;9.57;;;;;;;14.84;77.33;99437.66;5134756;27;20055;-52
2022/10/15 02:03:48;;;;;;;8.40;7.35;;;;;;;14.82;77.92;99435.25;5130977;27;20074;-52
2022/10/15 02:06:21;;;;;;;8.73;7.82;;;;;;;14.85;77.12;99436.50;5134306;27;20055;-53
2022/10/15 02:09:10;;;;;;;9.13;8.23;;;;;;;14.85;78.18;99433.69;5134451;27;20510;-50
2022/10/15 02:12:00;;;;;;;10.43;8.02;;;;;;;14.87;78.19;99430.53;5134683;27;20066;-53
2022/10/15 02:14:33;;;;;;;9.55;7.85;;;;;;;14.89;78.61;99437.38;5134313;27;20058;-53
2022/10/15 02:17:09;;;;;;;11.00;8.70;;;;;;;14.94;78.23;99431.47;5133224;27;20519;-53
2022/10/15 02:19:44;;;;;;;15.90;9.88;;;;;;;14.99;78.24;99422.78;5134103;27;20051;-52
2022/10/15 02:22:17;;;;;;;23.77;11.95;;;;;;;15.04;77.73;99423.66;5114058;28;20066;-53
2022/10/15 02:24:51;;;;;;;23.60;11.80;;;;;;;15.08;77.72;99427.34;5113494;28;20062;-54
2022/10/15 02:27:20;;;;;;;16.30;9.95;;;;;;;15.07;77.59;99422.91;5113513;28;20055;-53
2022/10/15 02:29:55;;;;;;;14.98;10.95;;;;;;;15.04;76.79;99416.03;5113373;28;20048;-52
2022/10/15 02:32:25;;;;;;;11.77;9.75;;;;;;;15.08;76.59;99402.09;5128259;27;20047;-59
2022/10/15 02:34:53;;;;;;;10.98;9.85;;;;;;;15.09;78.02;99412.13;5133902;27;20051;-60
2022/10/15 02:37:24;;;;;;;12.93;10.68;;;;;;;15.07;77.31;99415.28;5133858;27;20083;-61
2022/10/15 02:39:52;;;;;;;10.00;8.93;;;;;;;15.10;78.40;99411.75;5132402;27;20047;-59
2022/10/15 02:42:22;;;;;;;10.13;8.95;;;;;;;15.15;77.78;99405.84;5134431;27;20058;-59
2022/10/15 02:44:49;;;;;;;9.40;8.20;;;;;;;15.14;77.85;99409.84;5133059;27;20475;-60
2022/10/15 02:47:17;;;;;;;10.85;9.27;;;;;;;15.16;77.20;99406.63;5133968;27;20058;-60
2022/10/15 02:49:45;;;;;;;10.23;9.23;;;;;;;15.13;77.19;99407.41;5133394;27;20047;-60
2022/10/15 02:52:13;;;;;;;10.82;9.73;;;;;;;15.06;76.95;99405.28;5125424;27;20055;-60
2022/10/15 02:54:40;;;;;;;9.98;8.95;;;;;;;15.05;76.85;99416.84;5133662;27;20487;-59
2022/10/15 02:57:07;;;;;;;12.35;9.85;;;;;;;15.02;76.79;99416.41;5133534;27;20059;-59
2022/10/15 02:59:35;;;;;;;10.73;9.63;;;;;;;15.02;76.42;99418.41;5132098;27;20399;-58
2022/10/15 03:02:02;;;;;;;11.55;10.27;;;;;;;14.97;76.55;99415.88;5132057;27;20066;-59
2022/10/15 03:04:29;;;;;;;11.15;9.50;;;;;;;14.95;77.65;99424.69;5133324;27;20055;-59
2022/10/15 03:06:58;;;;;;;12.82;10.73;;;;;;;14.91;77.42;99435.03;5133538;27;20501;-58
2022/10/15 03:09:28;;;;;;;12.13;10.82;;;;;;;14.89;77.20;99437.38;5133173;27;20051;-59
2022/10/15 03:11:56;;;;;;;12.25;10.98;;;;;;;14.87;77.84;99436.94;5133604;27;20483;-59
2022/10/15 03:14:23;;;;;;;13.13;11.65;;;;;;;14.87;77.75;99422.91;5132549;27;20055;-59
2022/10/15 03:16:50;;;;;;;20.33;17.10;;;;;;;14.87;78.23;99427.72;5133490;27;20062;-60
2022/10/15 03:19:18;;;;;;;21.08;18.05;;;;;;;14.87;78.80;99428.53;5133489;27;20063;-60
2022/10/15 03:21:45;;;;;;;14.27;12.77;;;;;;;14.85;78.10;99430.88;5133322;27;20380;-59
2022/10/15 03:24:14;;;;;;;22.30;17.60;;;;;;;14.82;78.05;99426.84;5132863;27;20062;-59
2022/10/15 03:26:41;;;;;;;20.03;16.93;;;;;;;14.81;78.74;99419.59;5133656;27;20055;-60
2022/10/15 03:29:10;;;;;;;21.00;17.70;;;;;;;14.82;78.41;99418.44;5131846;27;20055;-60
2022/10/15 03:31:38;;;;;;;24.95;20.40;;;;;;;14.83;78.30;99422.03;5133011;27;20069;-59
2022/10/15 03:34:05;;;;;;;19.02;15.60;;;;;;;14.83;78.89;99410.81;5132900;27;20164;-59
2022/10/15 03:36:32;;;;;;;28.15;22.27;;;;;;;14.76;79.09;99410.66;5133529;27;20051;-58
2022/10/15 03:38:59;;;;;;;26.70;21.48;;;;;;;14.73;79.64;99403.00;5132947;28;20506;-59
2022/10/15 03:41:28;;;;;;;27.75;22.70;;;;;;;14.74;79.73;99394.22;5133192;27;20503;-55
2022/10/15 03:44:00;;;;;;;26.70;21.42;;;;;;;14.73;79.40;99394.59;5132929;28;20059;-59
2022/10/15 03:46:28;;;;;;;27.90;21.83;;;;;;;14.75;79.62;99406.25;5133136;28;20059;-59
2022/10/15 03:48:55;;;;;;;31.15;24.33;;;;;;;14.74;80.15;99391.41;5143129;27;20050;-59
2022/10/15 03:51:22;;;;;;;24.30;19.55;;;;;;;14.71;79.23;99389.34;5153542;27;20062;-58
2022/10/15 03:53:50;;;;;;;25.50;19.95;;;;;;;14.70;79.85;99393.34;5134981;27;20051;-60
2022/10/15 03:56:17;;;;;;;24.50;20.13;;;;;;;14.70;79.88;99395.31;5132016;27;20055;-58
2022/10/15 03:58:46;;;;;;;34.45;25.15;;;;;;;14.67;79.64;99394.06;5133101;27;20059;-60
2022/10/15 04:01:16;;;;;;;31.25;22.83;;;;;;;14.64;79.63;99386.41;5137089;27;20062;-60
2022/10/15 04:03:43;;;;;;;26.80;22.63;;;;;;;14.60;78.98;99396.72;5136569;27;20059;-59
2022/10/15 04:06:11;;;;;;;25.35;20.63;;;;;;;14.53;78.98;99396.53;5156932;27;20061;-60
2022/10/15 04:08:38;;;;;;;25.67;19.52;;;;;;;14.50;77.97;99400.88;5157553;27;20062;-60
2022/10/15 04:11:05;;;;;;;24.27;19.30;;;;;;;14.47;78.81;99393.22;5147073;27;20043;-60
2022/10/15 04:13:33;;;;;;;24.63;20.02;;;;;;;14.44;78.40;99385.53;5136949;27;20055;-60
2022/10/15 04:16:07;;;;;;;26.05;20.52;;;;;;;14.35;77.81;99390.56;5137100;27;20479;-60
2022/10/15 04:18:34;;;;;;;23.48;19.65;;;;;;;14.30;77.45;99390.81;5136835;27;20062;-60
2022/10/15 04:21:02;;;;;;;23.83;18.92;;;;;;;14.21;78.44;99396.63;5136611;27;20051;-59
2022/10/15 04:23:29;;;;;;;28.42;20.95;;;;;;;14.14;78.55;99397.28;5138197;27;20506;-59
2022/10/15 04:26:02;;;;;;;23.15;18.40;;;;;;;14.07;78.13;99399.09;5145569;27;20055;-59
2022/10/15 04:28:29;;;;;;;23.55;18.13;;;;;;;14.02;77.18;99405.81;5148005;27;20055;-59
2022/10/15 04:30:57;;;;;;;24.33;19.42;;;;;;;13.98;78.12;99405.72;5157100;27;20062;-59
2022/10/15 04:33:26;;;;;;;29.48;20.92;;;;;;;13.92;77.73;99409.16;5144487;27;20062;-59
2022/10/15 04:36:02;;;;;;;26.70;20.63;;;;;;;13.82;77.74;99407.72;5136429;27;20055;-59
2022/10/15 04:38:29;;;;;;;26.70;19.67;;;;;;;13.73;77.76;99407.94;5136369;27;20062;-59
2022/10/15 04:41:01;;;;;;;31.70;23.23;;;;;;;13.69;78.43;99414.59;5135469;27;20051;-58
2022/10/15 04:43:29;;;;;;;27.80;20.60;;;;;;;13.65;79.42;99413.69;5136193;27;20055;-59
2022/10/15 04:45:57;;;;;;;28.55;20.67;;;;;;;13.60;79.18;99423.16;5136529;27;20419;-59
2022/10/15 04:48:28;;;;;;;28.13;20.60;;;;;;;13.60;79.23;99406.38;5136407;27;20133;-59
2022/10/15 04:50:55;;;;;;;27.08;20.38;;;;;;;13.59;79.69;99411.16;5136343;27;20062;-60
2022/10/15 04:53:23;;;;;;;29.20;21.48;;;;;;;13.56;79.44;99414.66;5135053;27;20059;-58
2022/10/15 04:55:50;;;;;;;31.00;21.98;;;;;;;13.55;80.73;99407.47;5135323;27;20055;-59
2022/10/15 04:58:17;;;;;;;33.85;23.50;;;;;;;13.53;81.55;99417.41;5135938;27;20522;-60
2022/10/15 05:00:44;;;;;;;32.42;22.95;;;;;;;13.49;81.72;99416.50;5135558;27;20058;-59
2022/10/15 05:03:12;;;;;;;31.20;22.92;;;;;;;13.51;82.32;99408.56;5136046;27;20059;-59
2022/10/15 05:05:40;;;;;;;30.88;22.75;;;;;;;13.57;81.83;99407.13;5135888;27;20062;-59
2022/10/15 05:08:07;;;;;;;33.47;23.35;;;;;;;13.58;81.63;99408.72;5134430;27;20050;-58
2022/10/15 05:10:35;;;;;;;31.85;23.02;;;;;;;13.61;82.45;99410.81;5134877;27;20047;-59
2022/10/15 05:13:02;;;;;;;34.95;23.13;;;;;;;13.59;82.57;99413.16;5135601;27;20059;-60
2022/10/15 05:15:32;;;;;;;31.75;24.98;;;;;;;13.63;83.02;99416.03;5135850;27;20059;-59
2022/10/15 05:17:59;;;;;;;31.35;23.75;;;;;;;13.71;81.41;99415.88;5115355;28;20058;-59
2022/10/15 05:20:27;;;;;;;33.55;23.42;;;;;;;13.75;81.66;99413.13;5132503;27;20123;-59
2022/10/15 05:22:55;;;;;;;27.02;20.00;;;;;;;13.79;82.40;99408.44;5155945;27;20054;-59
2022/10/15 05:25:23;;;;;;;28.05;20.75;;;;;;;13.83;82.47;99406.53;5137275;27;20077;-59
2022/10/15 05:27:50;;;;;;;25.52;18.73;;;;;;;13.88;81.46;99411.06;5135489;27;20054;-60
2022/10/15 05:30:17;;;;;;;29.73;20.45;;;;;;;13.90;80.98;99409.53;5135566;27;20411;-60
2022/10/15 05:32:45;;;;;;;24.67;17.77;;;;;;;13.93;80.75;99408.78;5134652;27;20078;-59
2022/10/15 05:35:12;;;;;;;28.33;21.77;;;;;;;13.92;80.36;99400.75;5135460;27;20063;-60
2022/10/15 05:37:39;;;;;;;25.20;19.83;;;;;;;13.92;80.62;99398.78;5135024;27;20055;-59
2022/10/15 05:40:09;;;;;;;27.25;20.83;;;;;;;13.91;79.82;99399.94;5134370;27;20483;-59
2022/10/15 05:42:36;;;;;;;27.08;20.90;;;;;;;13.87;78.63;99398.25;5135055;27;20047;-58
2022/10/15 05:45:06;;;;;;;24.60;18.40;;;;;;;13.84;78.83;99393.34;5135216;27;20055;-60
2022/10/15 05:47:33;;;;;;;24.15;18.13;;;;;;;13.75;78.97;99383.19;5135201;27;20055;-59
2022/10/15 05:50:01;;;;;;;26.40;19.55;;;;;;;13.72;78.62;99399.88;5134780;27;20055;-59
2022/10/15 05:52:28;;;;;;;25.52;20.17;;;;;;;13.67;77.96;99403.78;5133662;27;20059;-60
2022/10/15 05:54:57;;;;;;;23.70;18.50;;;;;;;13.63;78.03;99408.47;5125890;27;20059;-59
2022/10/15 05:57:26;;;;;;;26.02;19.73;;;;;;;13.53;78.28;99400.59;5134845;27;20059;-60
2022/10/15 05:59:53;;;;;;;25.88;18.85;;;;;;;13.40;78.39;99400.69;5128892;27;20078;-59
2022/10/15 06:02:21;;;;;;;27.42;20.23;;;;;;;13.34;79.48;99416.13;5125646;27;20062;-59
2022/10/15 06:04:48;;;;;;;26.00;19.40;;;;;;;13.28;79.13;99420.31;5127454;27;20763;-60
2022/10/15 06:07:15;;;;;;;25.40;17.63;;;;;;;13.25;78.95;99426.63;5133532;27;20487;-60
2022/10/15 06:09:43;;;;;;;28.48;21.55;;;;;;;13.24;78.54;99433.38;5134418;27;20077;-59
2022/10/15 06:12:10;;;;;;;27.73;19.42;;;;;;;13.20;79.86;99438.88;5134551;27;20059;-59
2022/10/15 06:14:39;;;;;;;24.90;18.00;;;;;;;13.24;80.44;99443.75;5134176;27;20415;-62
2022/10/15 06:17:06;;;;;;;23.50;17.42;;;;;;;13.31;79.77;99442.00;5129960;27;20047;-61
2022/10/15 06:19:33;;;;;;;24.27;19.02;;;;;;;13.41;79.76;99449.06;5135779;27;20051;-59
2022/10/15 06:22:00;;;;;;;21.98;17.48;;;;;;;13.51;80.26;99442.13;5141287;27;20043;-60
2022/10/15 06:24:28;;;;;;;23.30;17.98;;;;;;;13.57;80.55;99446.28;5141380;27;20051;-62
2022/10/15 06:26:55;;;;;;;24.75;19.80;;;;;;;13.67;80.31;99445.75;5148958;27;20132;-61
2022/10/15 06:29:22;;;;;;;22.50;16.48;;;;;;;13.74;79.82;99440.31;5140933;27;20051;-61
2022/10/15 06:31:51;;;;;;;23.52;16.92;;;;;;;13.86;80.33;99441.38;5148782;27;20047;-59
2022/10/15 06:34:18;;;;;;;26.30;16.15;;;;;;;13.97;79.24;99445.28;5142857;27;20426;-60
2022/10/15 06:36:45;;;;;;;23.08;18.52;;;;;;;14.04;79.23;99441.84;5152750;27;20051;-59
2022/10/15 06:39:15;;;;;;;20.52;16.52;;;;;;;14.11;78.95;99437.25;5139297;27;20067;-59
2022/10/15 06:41:43;;;;;;;20.38;16.23;;;;;;;14.21;78.81;99445.09;5145739;27;20065;-59
2022/10/15 06:44:12;;;;;;;20.48;16.50;;;;;;;14.28;79.07;99441.63;5132175;27;20081;-59
2022/10/15 06:46:39;;;;;;;22.25;18.17;;;;;;;14.38;79.48;99451.44;5146613;27;20387;-61
2022/10/15 06:49:09;;;;;;;22.20;17.48;;;;;;;14.49;79.10;99452.50;5134783;27;20055;-61
2022/10/15 06:51:37;;;;;;;20.73;17.13;;;;;;;14.59;77.95;99460.38;5120147;27;20487;-61
2022/10/15 06:54:04;;;;;;;19.77;16.08;;;;;;;14.73;77.97;99461.88;5138417;27;20061;-61
2022/10/15 06:56:32;;;;;;;19.83;16.77;;;;;;;14.83;77.73;99464.09;5143013;27;20408;-58
2022/10/15 06:58:59;;;;;;;19.42;15.45;;;;;;;14.98;77.23;99456.78;5148787;27;20062;-62
2022/10/15 07:01:26;;;;;;;17.70;14.70;;;;;;;15.15;77.52;99449.91;5141576;27;20051;-60
2022/10/15 07:03:53;;;;;;;20.85;18.08;;;;;;;15.29;76.64;99453.00;5142238;27;20121;-60
2022/10/15 07:06:22;;;;;;;22.60;19.02;;;;;;;15.52;76.15;99447.41;5151188;27;20055;-60
2022/10/15 07:08:52;;;;;;;21.27;16.58;;;;;;;15.80;76.06;99452.75;5149646;27;20065;-60
2022/10/15 07:11:19;;;;;;;21.05;16.42;;;;;;;16.09;74.55;99456.03;5149041;27;20055;-60
2022/10/15 07:13:47;;;;;;;22.67;18.10;;;;;;;16.41;73.25;99455.72;5148090;27;20054;-60
2022/10/15 07:16:14;;;;;;;20.05;17.45;;;;;;;17.02;72.60;99460.19;5149468;27;20529;-60
2022/10/15 07:18:47;;;;;;;22.15;18.27;;;;;;;17.85;68.77;99455.47;5136035;27;20059;-60
2022/10/15 07:21:14;;;;;;;23.67;19.38;;;;;;;17.59;68.70;99464.84;5144981;27;20051;-60
2022/10/15 07:23:43;;;;;;;22.88;19.85;;;;;;;17.82;68.10;99456.22;5129665;27;20513;-58
2022/10/15 07:26:10;;;;;;;20.80;17.00;;;;;;;18.62;66.50;99456.44;5120385;27;20495;-60
2022/10/15 07:28:38;;;;;;;19.55;16.45;;;;;;;18.71;65.13;99446.81;5131378;27;21014;-60
2022/10/15 07:31:07;;;;;;;21.85;17.60;;;;;;;18.81;65.24;99449.72;5291220;22;20049;-52
2022/10/15 07:33:35;;;;;;;21.90;18.30;;;;;;;19.52;62.49;99445.53;5064674;28;20419;-59
2022/10/15 07:36:04;;;;;;;21.80;17.40;;;;;;;20.76;59.21;99445.13;5069389;28;20398;-60
2022/10/15 07:38:32;;;;;;;21.33;18.67;;;;;;;21.49;55.87;99450.88;5071604;28;20056;-60
2022/10/15 07:41:02;;;;;;;22.52;19.30;;;;;;;21.86;54.75;99452.28;5071071;28;20057;-60
2022/10/15 07:43:30;;;;;;;21.08;17.33;;;;;;;23.00;51.96;99438.19;5074752;28;20053;-60
2022/10/15 07:45:58;;;;;;;18.92;16.55;;;;;;;24.02;49.67;99432.72;5064621;28;20055;-60
2022/10/15 07:48:26;;;;;;;19.60;17.50;;;;;;;24.52;47.94;99431.88;5082717;28;20400;-60
2022/10/15 07:50:56;;;;;;;21.15;18.05;;;;;;;25.57;46.13;99437.03;5075194;28;20573;-60
2022/10/15 07:53:24;;;;;;;19.42;17.35;;;;;;;26.66;42.97;99442.50;5068982;28;20059;-61
2022/10/15 07:55:51;;;;;;;20.27;18.27;;;;;;;27.51;40.53;99437.63;5084903;28;20063;-61
2022/10/15 07:58:20;;;;;;;20.05;18.05;;;;;;;28.23;40.30;99438.19;5078284;28;20483;-61
2022/10/15 08:00:47;;;;;;;18.85;16.85;;;;;;;27.78;39.64;99445.75;5064748;28;20064;-61
2022/10/15 08:03:15;;;;;;;18.55;15.90;;;;;;;26.83;41.79;99445.31;5089822;28;20424;-61
2022/10/15 08:05:42;;;;;;;17.80;16.00;;;;;;;25.82;43.38;99456.41;5080146;28;20063;-60
2022/10/15 08:08:09;;;;;;;18.40;16.55;;;;;;;24.77;45.36;99457.03;5077118;28;20056;-61
2022/10/15 08:10:37;;;;;;;18.10;16.05;;;;;;;23.63;47.44;99457.69;5076521;28;20048;-61
2022/10/15 08:13:04;;;;;;;19.20;17.20;;;;;;;21.93;51.11;99462.75;5076137;28;20056;-59
2022/10/15 08:15:33;;;;;;;18.50;16.40;;;;;;;21.46;53.06;99459.41;5080085;28;20107;-60
2022/10/15 08:18:00;;;;;;;19.10;16.83;;;;;;;20.81;55.50;99454.00;5086427;28;20056;-60
2022/10/15 08:20:27;;;;;;;19.15;17.15;;;;;;;20.58;56.27;99450.81;5087985;28;20128;-60
2022/10/15 08:22:54;;;;;;;21.00;18.33;;;;;;;20.31;56.86;99451.25;5084847;28;20078;-60
2022/10/15 08:25:22;;;;;;;22.98;17.45;;;;;;;19.84;58.65;99453.28;5078968;28;20415;-60
2022/10/15 08:27:49;;;;;;;19.05;15.95;;;;;;;20.38;57.26;99448.41;5077905;28;20060;-60
2022/10/15 08:30:16;;;;;;;18.65;16.35;;;;;;;21.03;55.93;99449.06;5083814;28;20483;-60
2022/10/15 08:32:45;;;;;;;16.95;15.15;;;;;;;21.16;55.52;99442.94;5081495;28;20040;-60
2022/10/15 08:35:12;;;;;;;19.38;16.55;;;;;;;20.91;55.69;99443.06;5079787;28;20048;-60
2022/10/15 08:37:39;;;;;;;18.50;14.68;;;;;;;20.93;55.83;99438.59;5074054;28;20048;-60
2022/10/15 08:40:09;;;;;;;18.55;16.65;;;;;;;21.39;54.77;99442.44;5076089;28;20060;-60
2022/10/15 08:42:40;;;;;;;18.90;16.27;;;;;;;22.20;53.26;99428.09;5074746;28;20044;-60
2022/10/15 08:45:13;;;;;;;17.38;14.20;;;;;;;23.20;50.20;99417.69;5082779;28;20059;-60
2022/10/15 08:47:45;;;;;;;19.02;15.13;;;;;;;24.78;45.99;99423.63;5080705;28;20055;-60
2022/10/15 08:50:26;;;;;;;14.82;13.27;;;;;;;26.24;43.99;99416.66;5079459;28;20055;-60
2022/10/15 08:52:55;;;;;;;13.68;12.25;;;;;;;27.64;39.76;99404.09;5079673;28;20060;-60
2022/10/15 08:55:23;;;;;;;13.88;12.50;;;;;;;28.87;37.39;99417.94;5092721;28;20063;-61
2022/10/15 08:57:57;;;;;;;12.73;11.43;;;;;;;28.63;38.22;99421.25;5082907;28;20051;-60
2022/10/15 09:00:27;;;;;;;13.23;11.95;;;;;;;27.69;38.75;99425.63;5074892;28;20048;-61
2022/10/15 09:03:02;;;;;;;11.30;10.20;;;;;;;26.99;39.17;99424.47;5088482;28;20060;-61
2022/10/15 09:05:50;;;;;;;12.02;10.73;;;;;;;27.28;39.61;99418.72;5069413;28;20507;-60
2022/10/15 09:08:25;;;;;;;10.70;9.70;;;;;;;28.69;36.78;99407.94;5077637;28;20067;-61
2022/10/15 09:10:57;;;;;;;11.15;10.13;;;;;;;29.46;35.32;99421.84;5087212;28;20063;-61
2022/10/15 09:13:27;;;;;;;9.07;8.27;;;;;;;30.45;33.31;99426.84;5083512;28;20052;-60
2022/10/15 09:15:59;;;;;;;9.40;8.50;;;;;;;29.36;34.37;99425.94;5084400;28;20079;-60
2022/10/15 09:18:31;;;;;;;8.60;7.80;;;;;;;27.88;37.02;99427.47;5083895;28;20055;-60
2022/10/15 09:21:02;;;;;;;8.55;7.75;;;;;;;30.01;34.83;99414.72;5074792;28;20395;-60
2022/10/15 09:23:29;;;;;;;7.97;7.18;;;;;;;30.80;33.28;99414.22;5090052;28;20041;-60
2022/10/15 09:26:02;;;;;;;7.70;7.00;;;;;;;30.30;33.44;99417.22;5084274;28;20407;-60
2022/10/15 09:28:39;;;;;;;8.00;6.35;;;;;;;31.05;32.67;99421.72;5085921;28;20052;-60
2022/10/15 09:31:09;;;;;;;6.10;5.50;;;;;;;31.90;31.56;99413.19;5080453;28;20056;-60
2022/10/15 09:33:42;;;;;;;4.47;4.07;;;;;;;30.05;33.98;99407.59;5068912;28;20048;-46
2022/10/15 09:36:27;;;;;;;4.80;3.55;;;;;;;29.28;35.16;99407.41;5060662;28;20053;-44
2022/10/15 09:39:05;;;;;;;3.35;3.05;;;;;;;27.79;37.07;99415.88;5062440;28;20427;-59
2022/10/15 09:41:44;;;;;;;3.58;2.72;;;;;;;27.10;38.63;99416.38;5090475;28;20052;-59
2022/10/15 09:44:14;;;;;;;3.42;2.83;;;;;;;25.10;42.63;99401.00;5094301;28;20052;-59
2022/10/15 09:46:45;;;;;;;3.42;2.40;;;;;;;25.15;42.39;99396.03;5087210;28;20056;-59
2022/10/15 09:49:18;;;;;;;4.43;2.40;;;;;;;24.51;43.88;99390.41;5073933;28;20429;-61
2022/10/15 09:51:58;;;;;;;3.25;2.17;;;;;;;24.48;44.84;99394.91;5073805;28;20060;-61
2022/10/15 09:54:38;;;;;;;3.33;2.30;;;;;;;24.81;44.26;99394.28;5073976;28;20064;-61
2022/10/15 09:57:09;;;;;;;2.60;1.52;;;;;;;24.52;44.56;99392.00;5071276;28;20061;-61
2022/10/15 09:59:36;;;;;;;2.08;1.60;;;;;;;24.06;45.51;99387.94;5073882;28;20060;-60
2022/10/15 10:02:16;;;;;;;3.95;1.50;;;;;;;25.71;42.84;99399.63;5073837;28;20404;-61
2022/10/15 10:04:43;;;;;;;2.03;1.33;;;;;;;25.45;42.36;99394.94;5073683;28;20389;-61
2022/10/15 10:07:29;;;;;;;2.20;1.50;;;;;;;25.90;41.72;99394.31;5060161;28;20064;-60
2022/10/15 10:09:57;;;;;;;2.55;1.27;;;;;;;24.99;43.31;99394.72;5050750;28;20071;-59
2022/10/15 10:12:28;;;;;;;1.50;1.00;;;;;;;24.85;44.00;99389.34;5052348;28;20051;-61
2022/10/15 10:14:58;;;;;;;2.47;1.10;;;;;;;24.60;44.73;99393.47;5060346;28;20053;-64
2022/10/15 10:17:27;;;;;;;2.72;0.80;;;;;;;24.21;46.07;99392.16;5093715;28;20056;-61
2022/10/15 10:20:13;;;;;;;1.60;0.90;;;;;;;23.72;46.75;99397.44;5063050;28;20056;-61
2022/10/15 10:22:45;;;;;;;1.13;0.70;;;;;;;23.41;47.87;99391.00;5054781;28;20053;-60
2022/10/15 10:25:38;;;;;;;1.63;0.95;;;;;;;23.28;48.51;99405.78;5067690;28;20057;-61
2022/10/15 10:28:16;;;;;;;1.08;0.68;;;;;;;22.95;49.37;99384.72;5069313;28;20049;-60
2022/10/15 10:30:52;;;;;;;1.08;0.73;;;;;;;22.60;50.06;99391.63;5079115;28;20053;-61
2022/10/15 10:33:26;;;;;;;0.90;0.60;;;;;;;22.06;51.90;99395.78;5052783;28;20059;-60
2022/10/15 10:35:54;;;;;;;1.10;0.60;;;;;;;21.42;54.42;99393.47;5070031;28;20061;-61
2022/10/15 10:38:25;;;;;;;1.58;0.60;;;;;;;21.17;55.27;99385.09;5072720;28;20098;-61
2022/10/15 10:40:54;;;;;;;2.13;0.70;;;;;;;20.31;57.32;99377.72;5073055;28;20058;-60
2022/10/15 10:43:25;;;;;;;1.20;0.70;;;;;;;20.77;56.98;99378.84;5072652;28;20053;-60
2022/10/15 10:45:54;;;;;;;1.67;0.65;;;;;;;21.04;55.68;99387.56;5072511;28;20060;-61
2022/10/15 10:48:22;;;;;;;;;;;;;;;21.25;55.49;99383.81;5071599;28;20061;-60
2022/10/15 10:51:02;;;;;;;1.10;0.60;;;;;;;21.45;54.91;99378.47;5072830;28;20276;-60
2022/10/15 10:53:31;;;;;;;0.90;0.60;;;;;;;22.06;53.09;99373.09;5072764;28;20056;-60
2022/10/15 10:56:01;;;;;;;1.20;0.60;;;;;;;22.25;51.95;99351.06;5072639;28;20060;-60
2022/10/15 10:58:34;;;;;;;0.90;0.50;;;;;;;22.18;52.85;99359.63;5072365;28;20060;-60
2022/10/15 11:01:01;;;;;;;1.45;0.70;;;;;;;22.51;52.41;99358.09;5072716;28;20056;-61
2022/10/15 11:03:33;;;;;;;1.10;0.70;;;;;;;22.54;52.13;99362.91;5071005;28;20059;-60
2022/10/15 11:06:21;;;;;;;1.05;0.65;;;;;;;22.54;52.44;99354.41;5072230;28;20353;-60
2022/10/15 11:09:02;;;;;;;1.33;0.63;;;;;;;22.45;51.62;99354.09;5072282;28;20515;-60
2022/10/15 11:11:36;;;;;;;1.27;0.50;;;;;;;22.01;52.81;99350.88;5072165;28;20507;-60
2022/10/15 11:14:17;;;;;;;1.80;0.50;;;;;;;21.77;53.93;99352.69;5072320;28;20435;-61
2022/10/15 11:16:54;;;;;;;1.00;0.40;;;;;;;21.16;56.03;99360.81;5070945;28;20419;-60
2022/10/15 11:19:31;;;;;;;0.75;0.40;;;;;;;21.07;56.83;99359.25;5072268;28;20052;-61
2022/10/15 11:22:15;;;;;;;2.95;0.73;;;;;;;20.73;59.56;99356.19;5072421;28;20057;-60
2022/10/15 11:24:52;;;;;;;2.00;0.63;;;;;;;20.68;60.11;99353.78;5072398;28;20416;-60
2022/10/15 11:27:42;;;;;;;1.85;0.82;;;;;;;20.85;59.50;99340.75;5072455;28;20496;-60
2022/10/15 11:30:27;;;;;;;1.63;0.63;;;;;;;21.06;59.43;99351.16;5070065;28;20063;-60
2022/10/15 11:33:08;;;;;;;1.00;0.80;;;;;;;21.47;57.49;99337.16;5067335;28;20060;-60
2022/10/15 11:35:43;;;;;;;0.98;0.70;;;;;;;21.82;57.72;99346.59;5072210;28;20063;-60
2022/10/15 11:38:21;;;;;;;2.30;0.75;;;;;;;22.07;56.41;99335.03;5058986;28;20052;-61